Time;durP1;ratioP1;P1;durP2;ratioP2;P2;SDS_P1;SDS_P2;PMS_P1;PMS_P2;Temp;Humidity;BMP_temperature;BMP_pressure;BME280_temperature;BME280_humidity;BME280_pressure;Samples;Min_cycle;Max_cycle;Signal;HPM_P1;HPM_P2
2022/03/11 00:01:53;;;;;;;14.05;7.22;;;5.70;90.50;;;;;;5051043;28;20041;-67
2022/03/11 00:04:19;;;;;;;12.93;7.35;;;5.60;90.60;;;;;;5053923;28;20197;-66
2022/03/11 00:06:44;;;;;;;16.95;8.15;;;5.60;90.80;;;;;;5052255;28;20122;-65
2022/03/11 00:09:10;;;;;;;13.57;6.97;;;5.60;91.00;;;;;;5052818;28;20045;-66
2022/03/11 00:11:37;;;;;;;14.93;7.68;;;5.60;91.00;;;;;;5041517;28;20041;-66
2022/03/11 00:14:02;;;;;;;13.70;7.13;;;5.50;91.30;;;;;;5051795;28;20494;-66
2022/03/11 00:16:28;;;;;;;16.45;6.97;;;5.50;91.80;;;;;;5050239;28;20056;-67
2022/03/11 00:18:54;;;;;;;12.40;7.53;;;5.40;91.90;;;;;;5052477;28;20044;-67
2022/03/11 00:21:19;;;;;;;13.05;6.75;;;5.40;92.10;;;;;;5051144;28;20115;-66
2022/03/11 00:23:45;;;;;;;13.98;7.80;;;5.40;92.10;;;;;;5059860;28;20547;-66
2022/03/11 00:26:11;;;;;;;13.18;6.85;;;5.30;92.30;;;;;;5053071;28;20517;-67
2022/03/11 00:28:37;;;;;;;13.77;6.70;;;5.40;92.50;;;;;;5052244;28;20328;-67
2022/03/11 00:31:04;;;;;;;14.32;8.07;;;5.20;93.00;;;;;;5057186;28;20037;-67
2022/03/11 00:33:31;;;;;;;11.98;7.28;;;5.20;93.40;;;;;;5052119;28;20041;-67
2022/03/11 00:35:57;;;;;;;15.48;7.28;;;5.40;93.90;;;;;;5050792;28;20056;-66
2022/03/11 00:38:22;;;;;;;16.60;6.63;;;5.20;93.40;;;;;;5046167;28;20519;-66
2022/03/11 00:40:48;;;;;;;13.85;7.07;;;5.20;93.70;;;;;;5041804;28;20076;-66
2022/03/11 00:43:14;;;;;;;16.92;7.45;;;5.20;94.20;;;;;;5050882;28;20036;-66
2022/03/11 00:45:39;;;;;;;13.32;6.80;;;5.10;94.30;;;;;;5046882;28;20068;-66
2022/03/11 00:48:05;;;;;;;16.45;6.93;;;5.10;94.30;;;;;;5053096;28;20041;-66
2022/03/11 00:50:31;;;;;;;11.57;6.70;;;5.10;94.70;;;;;;5055261;28;20132;-66
2022/03/11 00:52:57;;;;;;;12.38;7.00;;;5.00;95.00;;;;;;5046410;28;20132;-65
2022/03/11 00:55:22;;;;;;;12.35;6.95;;;5.00;95.30;;;;;;5052237;28;20076;-66
2022/03/11 00:57:48;;;;;;;13.30;7.70;;;5.00;96.10;;;;;;5051996;28;20102;-67
2022/03/11 01:00:14;;;;;;;14.88;6.88;;;5.00;95.60;;;;;;5052117;28;20045;-66
2022/03/11 01:02:40;;;;;;;15.15;7.43;;;4.90;96.20;;;;;;5051519;28;20486;-66
2022/03/11 01:05:06;;;;;;;13.07;7.65;;;4.90;97.10;;;;;;5050162;28;20060;-67
2022/03/11 01:07:33;;;;;;;17.27;7.55;;;4.90;97.40;;;;;;5051604;28;20037;-66
2022/03/11 01:09:59;;;;;;;14.13;7.22;;;4.80;96.80;;;;;;5053066;28;20041;-66
2022/03/11 01:12:26;;;;;;;15.27;8.40;;;4.80;97.80;;;;;;5051795;28;20513;-66
2022/03/11 01:14:52;;;;;;;12.57;7.82;;;5.10;98.10;;;;;;5050656;28;20432;-66
2022/03/11 01:17:19;;;;;;;13.30;7.93;;;4.80;97.60;;;;;;5053440;28;20041;-66
2022/03/11 01:19:45;;;;;;;17.95;8.95;;;4.70;98.10;;;;;;5056870;28;20072;-66
2022/03/11 01:22:10;;;;;;;14.30;7.90;;;4.70;98.50;;;;;;5048752;28;20079;-66
2022/03/11 01:24:36;;;;;;;19.20;9.70;;;4.70;98.70;;;;;;5050647;28;20106;-66
2022/03/11 01:27:01;;;;;;;16.38;8.43;;;4.70;99.90;;;;;;5050451;28;20045;-66
2022/03/11 01:29:27;;;;;;;14.00;7.57;;;4.60;99.60;;;;;;5052330;28;20052;-66
2022/03/11 01:31:53;;;;;;;15.20;8.57;;;4.60;99.80;;;;;;5044159;28;20033;-66
2022/03/11 01:34:20;;;;;;;16.38;8.60;;;4.60;99.90;;;;;;5051656;28;20041;-66
2022/03/11 01:36:46;;;;;;;18.58;8.45;;;4.60;99.90;;;;;;5051105;28;20118;-66
2022/03/11 01:39:12;;;;;;;20.38;9.18;;;4.50;99.90;;;;;;5056049;28;20044;-66
2022/03/11 01:41:38;;;;;;;17.55;9.15;;;4.60;99.90;;;;;;5049195;28;20130;-67
2022/03/11 01:44:06;;;;;;;19.50;9.55;;;4.80;99.90;;;;;;5052939;28;20518;-66
2022/03/11 01:46:32;;;;;;;;;;;4.70;99.90;;;;;;5052587;28;20448;-66
2022/03/11 01:48:59;;;;;;;15.30;9.63;;;4.40;99.90;;;;;;5044857;28;19926;-66
2022/03/11 01:51:27;;;;;;;16.58;9.45;;;4.30;99.90;;;;;;5051994;28;20127;-66
2022/03/11 01:53:53;;;;;;;18.83;9.60;;;4.30;99.90;;;;;;5052149;28;20397;-66
2022/03/11 01:56:20;;;;;;;17.52;9.60;;;4.30;99.90;;;;;;5051497;28;20045;-66
2022/03/11 01:58:54;;;;;;;17.60;10.30;;;4.30;99.90;;;;;;5052979;28;20041;-66
2022/03/11 02:01:21;;;;;;;21.35;10.25;;;4.20;99.90;;;;;;5033348;28;20478;-66
2022/03/11 02:03:47;;;;;;;22.58;12.05;;;4.20;99.90;;;;;;5045011;28;20099;-66
2022/03/11 02:06:14;;;;;;;17.27;10.25;;;4.10;99.90;;;;;;5047603;28;20029;-66
2022/03/11 02:08:41;;;;;;;19.50;9.85;;;4.10;99.90;;;;;;5045013;28;20060;-67
2022/03/11 02:11:07;;;;;;;18.77;10.70;;;4.00;99.90;;;;;;5051690;28;20033;-67
2022/03/11 02:16:26;;;;;;;18.40;11.25;;;4.00;99.90;;;;;;5048616;28;20054;-75
2022/03/11 02:18:52;;;;;;;23.23;10.40;;;4.90;99.90;;;;;;5043824;28;20060;-75
2022/03/11 02:21:19;;;;;;;22.10;11.30;;;3.90;99.90;;;;;;5048758;28;20044;-75
2022/03/11 02:23:50;;;;;;;19.83;11.23;;;4.60;99.90;;;;;;5029203;28;20028;-74
2022/03/11 02:26:17;;;;;;;21.05;11.45;;;3.90;99.90;;;;;;5035347;28;20064;-74
2022/03/11 02:28:44;;;;;;;22.80;11.88;;;3.80;99.90;;;;;;5025190;28;20045;-74
2022/03/11 02:31:10;;;;;;;21.25;11.25;;;4.10;99.90;;;;;;5040267;28;20025;-75
2022/03/11 02:33:36;;;;;;;19.02;11.20;;;3.80;99.90;;;;;;5020839;28;20072;-75
2022/03/11 02:36:02;;;;;;;22.83;11.60;;;3.80;99.90;;;;;;5044559;28;20088;-78
2022/03/11 02:38:27;;;;;;;22.38;13.73;;;3.70;99.90;;;;;;5054915;28;20041;-74
2022/03/11 02:40:54;;;;;;;22.58;12.50;;;3.70;99.90;;;;;;5038028;28;20033;-73
2022/03/11 02:43:20;;;;;;;26.60;12.77;;;3.70;99.90;;;;;;5051022;28;20082;-73
2022/03/11 02:45:45;;;;;;;23.38;13.05;;;3.70;99.90;;;;;;5044443;28;20023;-74
2022/03/11 02:48:11;;;;;;;21.98;12.57;;;3.60;99.90;;;;;;5044525;28;20088;-78
2022/03/11 02:50:37;;;;;;;21.17;13.73;;;3.60;99.90;;;;;;5043705;28;20030;-77
2022/03/11 02:53:03;;;;;;;24.45;13.45;;;3.60;99.90;;;;;;5043969;28;20050;-73
2022/03/11 02:55:28;;;;;;;23.70;14.23;;;3.70;99.90;;;;;;5049583;28;20022;-73
2022/03/11 02:57:54;;;;;;;26.42;14.20;;;4.00;99.90;;;;;;5027710;28;20061;-75
2022/03/11 03:00:20;;;;;;;25.50;14.57;;;3.60;99.90;;;;;;5046394;28;20045;-74
2022/03/11 03:02:46;;;;;;;31.65;13.98;;;3.60;99.90;;;;;;5050817;28;20044;-72
2022/03/11 03:05:13;;;;;;;23.55;13.68;;;3.60;99.90;;;;;;5051774;28;20041;-72
2022/03/11 03:07:39;;;;;;;29.10;14.77;;;3.60;99.90;;;;;;5039653;28;20026;-73
2022/03/11 03:10:06;;;;;;;25.65;14.52;;;3.60;99.90;;;;;;5046515;28;20056;-73
2022/03/11 03:12:32;;;;;;;26.83;15.18;;;3.60;99.90;;;;;;5035195;28;20064;-76
2022/03/11 03:14:57;;;;;;;25.48;14.05;;;3.60;99.90;;;;;;5025465;28;20053;-74
2022/03/11 03:17:23;;;;;;;24.05;14.38;;;3.50;99.90;;;;;;5053915;28;20037;-75
2022/03/11 03:19:49;;;;;;;27.35;14.85;;;3.50;99.90;;;;;;5052974;28;20085;-74
2022/03/11 03:22:16;;;;;;;28.20;15.85;;;3.50;99.90;;;;;;5038107;28;20038;-75
2022/03/11 03:24:42;;;;;;;26.10;14.90;;;3.50;99.90;;;;;;5049906;28;20038;-73
2022/03/11 03:27:09;;;;;;;23.90;14.73;;;3.50;99.90;;;;;;5057461;28;20029;-74
2022/03/11 03:29:36;;;;;;;25.17;15.02;;;3.50;99.90;;;;;;5031160;28;20056;-73
2022/03/11 03:32:02;;;;;;;25.45;14.82;;;3.40;99.90;;;;;;5047666;28;20030;-74
2022/03/11 03:34:34;;;;;;;31.17;17.20;;;3.40;99.90;;;;;;5049648;28;20038;-73
2022/03/11 03:37:09;;;;;;;29.65;15.27;;;3.40;99.90;;;;;;5016751;28;20554;-72
2022/03/11 03:39:36;;;;;;;27.30;14.70;;;3.40;99.90;;;;;;5053065;28;20025;-74
2022/03/11 03:42:02;;;;;;;31.35;15.45;;;3.40;99.90;;;;;;5054655;28;20046;-75
2022/03/11 03:44:27;;;;;;;25.23;16.80;;;3.40;99.90;;;;;;5055210;28;20080;-78
2022/03/11 03:46:53;;;;;;;28.60;16.77;;;3.50;99.90;;;;;;5052242;28;20017;-74
2022/03/11 03:49:19;;;;;;;27.95;16.48;;;3.40;99.90;;;;;;5048043;28;20041;-73
2022/03/11 03:51:46;;;;;;;29.75;15.40;;;3.40;99.90;;;;;;5049874;28;20064;-74
2022/03/11 03:54:12;;;;;;;28.42;15.32;;;3.40;99.90;;;;;;5051543;28;20049;-74
2022/03/11 03:56:42;;;;;;;27.80;16.13;;;3.40;99.90;;;;;;5047130;28;20048;-76
2022/03/11 03:59:09;;;;;;;32.35;16.42;;;3.40;99.90;;;;;;5032388;28;20044;-75
2022/03/11 04:01:35;;;;;;;32.67;17.00;;;3.30;99.90;;;;;;5050559;28;20037;-74
2022/03/11 04:04:03;;;;;;;30.10;16.17;;;3.30;99.90;;;;;;5060089;28;20033;-73
2022/03/11 04:06:29;;;;;;;26.35;15.07;;;3.30;99.90;;;;;;5034128;28;20105;-74
2022/03/11 04:08:58;;;;;;;33.33;15.45;;;3.30;99.90;;;;;;5026470;28;20089;-76
2022/03/11 04:11:25;;;;;;;33.92;16.55;;;3.20;99.90;;;;;;5045388;28;20048;-71
2022/03/11 04:13:51;;;;;;;29.50;16.13;;;3.20;99.90;;;;;;5051638;28;20026;-74
2022/03/11 04:16:18;;;;;;;30.50;16.67;;;3.20;99.90;;;;;;5041673;28;20212;-74
2022/03/11 04:18:44;;;;;;;30.13;16.58;;;3.10;99.90;;;;;;5039421;28;20030;-73
2022/03/11 04:21:10;;;;;;;31.33;16.42;;;3.10;99.90;;;;;;5053150;28;20048;-75
2022/03/11 04:23:35;;;;;;;31.63;16.90;;;3.00;99.90;;;;;;5056245;28;20056;-74
2022/03/11 04:26:02;;;;;;;29.80;16.25;;;3.00;99.90;;;;;;5042093;28;20060;-77
2022/03/11 04:28:28;;;;;;;33.03;16.95;;;3.00;99.90;;;;;;5054500;28;20052;-73
2022/03/11 04:30:53;;;;;;;27.70;16.27;;;3.20;99.90;;;;;;5054397;28;20124;-73
2022/03/11 04:33:19;;;;;;;30.75;15.52;;;2.90;99.90;;;;;;5040391;28;20038;-73
2022/03/11 04:35:45;;;;;;;26.05;16.10;;;2.90;99.90;;;;;;5054864;28;20028;-75
2022/03/11 04:38:10;;;;;;;28.10;16.90;;;2.90;99.90;;;;;;5045129;28;20100;-75
2022/03/11 04:40:36;;;;;;;28.27;15.95;;;2.80;99.90;;;;;;5038477;28;20082;-76
2022/03/11 04:43:02;;;;;;;35.55;17.30;;;2.90;99.90;;;;;;5037824;28;20063;-74
2022/03/11 04:45:28;;;;;;;35.55;17.02;;;2.80;99.90;;;;;;5048118;28;20112;-78
2022/03/11 04:47:54;;;;;;;35.28;17.80;;;2.80;99.90;;;;;;5055750;28;20048;-74
2022/03/11 04:50:20;;;;;;;30.52;17.20;;;2.70;99.90;;;;;;5059212;28;20044;-74
2022/03/11 04:52:46;;;;;;;30.30;17.42;;;2.80;99.90;;;;;;5053852;28;20032;-73
2022/03/11 04:55:15;;;;;;;33.05;17.67;;;2.70;99.90;;;;;;5048487;28;20041;-74
2022/03/11 04:57:41;;;;;;;29.00;16.13;;;2.80;99.90;;;;;;5051924;28;20041;-73
2022/03/11 05:00:08;;;;;;;36.72;17.45;;;2.80;99.90;;;;;;5050501;28;20034;-77
2022/03/11 05:02:34;;;;;;;32.22;17.13;;;2.70;99.90;;;;;;5040257;28;20077;-73
2022/03/11 05:05:08;;;;;;;30.27;17.80;;;2.70;99.90;;;;;;5056415;28;20034;-76
2022/03/11 05:07:34;;;;;;;27.75;15.93;;;2.70;99.90;;;;;;5053364;28;20077;-72
2022/03/11 05:10:01;;;;;;;30.55;16.88;;;2.70;99.90;;;;;;5054999;28;20033;-74
2022/03/11 05:12:27;;;;;;;33.78;17.00;;;2.70;99.90;;;;;;5050331;28;20121;-73
2022/03/11 05:14:53;;;;;;;31.88;17.20;;;2.60;99.90;;;;;;5048372;28;20041;-74
2022/03/11 05:17:19;;;;;;;35.75;17.85;;;3.80;99.90;;;;;;5034988;28;20037;-75
2022/03/11 05:19:45;;;;;;;33.05;17.48;;;2.60;99.90;;;;;;5051506;28;20049;-73
2022/03/11 05:22:11;;;;;;;29.05;16.73;;;2.60;99.90;;;;;;5054831;28;20037;-72
2022/03/11 05:24:38;;;;;;;31.88;18.00;;;2.60;99.90;;;;;;5037469;28;20045;-75
2022/03/11 05:27:05;;;;;;;33.13;17.77;;;2.60;99.90;;;;;;5047509;28;20029;-73
2022/03/11 05:29:32;;;;;;;29.98;16.25;;;2.60;99.90;;;;;;5056520;28;20026;-73
2022/03/11 05:31:58;;;;;;;31.38;17.15;;;2.50;99.90;;;;;;5032427;28;20668;-73
2022/03/11 05:34:24;;;;;;;30.88;16.85;;;2.60;99.90;;;;;;5040158;28;20038;-75
2022/03/11 05:36:50;;;;;;;31.88;17.15;;;2.60;99.90;;;;;;5057050;28;20033;-73
2022/03/11 05:39:15;;;;;;;32.15;17.75;;;2.50;99.90;;;;;;5048216;28;20022;-74
2022/03/11 05:41:41;;;;;;;30.23;17.73;;;2.50;99.90;;;;;;5029191;28;20034;-73
2022/03/11 05:44:07;;;;;;;29.70;17.55;;;2.50;99.90;;;;;;5050634;28;20263;-73
2022/03/11 05:46:32;;;;;;;36.70;17.27;;;2.40;99.90;;;;;;5010069;28;20045;-72
2022/03/11 05:48:58;;;;;;;28.73;16.52;;;2.40;99.90;;;;;;5044972;28;20045;-73
2022/03/11 05:51:24;;;;;;;32.47;17.60;;;2.40;99.90;;;;;;5028638;28;20042;-73
2022/03/11 05:53:49;;;;;;;39.08;19.73;;;2.40;99.90;;;;;;5037536;28;20029;-75
2022/03/11 05:56:15;;;;;;;32.90;18.05;;;2.40;99.90;;;;;;5051008;28;20098;-75
2022/03/11 05:58:41;;;;;;;33.00;18.23;;;2.40;99.90;;;;;;5038343;28;20025;-76
2022/03/11 06:01:06;;;;;;;35.67;17.15;;;2.40;99.90;;;;;;5049160;28;20148;-74
2022/03/11 06:03:32;;;;;;;29.27;16.48;;;2.40;99.90;;;;;;5051666;28;20037;-71
2022/03/11 06:05:58;;;;;;;34.67;17.60;;;2.40;99.90;;;;;;5043514;28;20037;-73
2022/03/11 06:08:23;;;;;;;33.65;17.45;;;2.40;99.90;;;;;;5046071;28;20056;-74
2022/03/11 06:10:49;;;;;;;32.72;16.85;;;2.40;99.90;;;;;;5043916;28;20042;-74
2022/03/11 06:13:15;;;;;;;37.83;17.45;;;2.40;99.90;;;;;;5039689;28;20034;-73
2022/03/11 06:15:45;;;;;;;30.40;17.08;;;2.40;99.90;;;;;;5009400;28;20057;-73
2022/03/11 06:18:13;;;;;;;31.40;16.17;;;2.40;99.90;;;;;;5035824;28;20026;-74
2022/03/11 06:20:39;;;;;;;41.13;17.02;;;2.40;99.90;;;;;;5037847;28;20088;-74
2022/03/11 06:23:04;;;;;;;32.92;16.80;;;2.40;99.90;;;;;;5026066;28;20040;-73
2022/03/11 06:25:30;;;;;;;30.30;17.00;;;2.40;99.90;;;;;;5045304;28;20021;-76
2022/03/11 06:27:56;;;;;;;30.25;16.38;;;2.40;99.90;;;;;;5031974;28;20040;-74
2022/03/11 06:30:21;;;;;;;29.23;16.33;;;2.60;99.90;;;;;;5035265;28;20413;-73
2022/03/11 06:32:48;;;;;;;27.90;15.77;;;2.40;99.90;;;;;;5030580;28;20076;-74
2022/03/11 06:35:15;;;;;;;31.27;16.30;;;2.40;99.90;;;;;;5027530;28;20073;-72
2022/03/11 06:37:52;;;;;;;33.65;16.20;;;2.50;99.90;;;;;;5045401;28;20058;-72
2022/03/11 06:40:19;;;;;;;28.10;17.02;;;2.50;99.90;;;;;;5028660;28;20052;-72
2022/03/11 06:42:46;;;;;;;30.50;16.23;;;2.50;99.90;;;;;;5042293;28;20046;-72
2022/03/11 06:45:14;;;;;;;30.48;16.73;;;2.50;99.90;;;;;;5041019;28;20088;-73
2022/03/11 06:47:40;;;;;;;30.58;15.70;;;2.50;99.90;;;;;;5025975;28;20061;-72
2022/03/11 06:50:07;;;;;;;29.25;16.35;;;2.50;99.90;;;;;;5041564;28;20037;-72
2022/03/11 06:52:33;;;;;;;30.83;15.63;;;2.50;99.90;;;;;;5044872;28;20046;-73
2022/03/11 06:54:59;;;;;;;28.80;15.70;;;2.60;99.90;;;;;;5052824;28;20045;-73
2022/03/11 06:57:25;;;;;;;30.15;16.85;;;2.60;99.90;;;;;;5045901;28;20033;-73
2022/03/11 06:59:51;;;;;;;32.38;17.00;;;2.70;99.90;;;;;;5042444;28;20037;-72
2022/03/11 07:02:18;;;;;;;28.50;15.25;;;2.70;99.90;;;;;;5014521;28;20066;-71
2022/03/11 07:04:44;;;;;;;30.17;15.98;;;2.80;99.90;;;;;;5037063;28;20041;-72
2022/03/11 07:07:10;;;;;;;28.67;15.63;;;2.90;99.90;;;;;;5053291;28;20056;-72
2022/03/11 07:09:36;;;;;;;29.17;15.75;;;3.00;99.90;;;;;;5048614;28;20046;-75
2022/03/11 07:12:03;;;;;;;28.42;15.60;;;3.00;99.90;;;;;;5038737;28;20049;-74
2022/03/11 07:14:30;;;;;;;29.75;15.18;;;3.10;99.90;;;;;;5031597;28;20050;-73
2022/03/11 07:16:57;;;;;;;29.77;16.00;;;3.20;99.90;;;;;;5043467;28;20504;-73
2022/03/11 07:19:23;;;;;;;27.20;16.45;;;3.30;99.90;;;;;;5014558;28;20045;-72
2022/03/11 07:21:48;;;;;;;28.20;14.70;;;3.40;99.90;;;;;;5022269;28;20105;-72
2022/03/11 07:24:14;;;;;;;28.83;15.73;;;3.50;99.90;;;;;;5054188;28;20029;-73
2022/03/11 07:26:40;;;;;;;28.55;16.65;;;3.50;99.90;;;;;;5053833;28;20042;-73
2022/03/11 07:29:06;;;;;;;28.13;16.05;;;3.60;99.90;;;;;;5033096;28;20053;-73
2022/03/11 07:31:32;;;;;;;32.08;16.15;;;3.60;99.90;;;;;;5033780;28;20053;-74
2022/03/11 07:33:58;;;;;;;34.58;16.17;;;3.70;99.90;;;;;;5041642;28;20041;-74
2022/03/11 07:36:24;;;;;;;29.55;16.92;;;3.80;99.90;;;;;;5046463;28;20034;-73
2022/03/11 07:38:50;;;;;;;30.98;16.90;;;3.80;99.90;;;;;;5039056;28;20050;-73
2022/03/11 07:41:16;;;;;;;29.00;15.75;;;3.90;99.90;;;;;;5042946;28;20044;-73
2022/03/11 07:43:44;;;;;;;33.20;16.08;;;3.90;99.90;;;;;;5041634;28;20554;-75
2022/03/11 07:46:14;;;;;;;29.48;14.80;;;4.10;99.90;;;;;;5039924;28;20045;-73
2022/03/11 07:48:43;;;;;;;27.88;15.60;;;4.90;99.90;;;;;;5006309;28;20035;-73
2022/03/11 07:51:09;;;;;;;39.35;16.35;;;4.40;99.90;;;;;;5041971;28;20052;-73
2022/03/11 07:53:35;;;;;;;25.60;15.20;;;4.50;99.90;;;;;;5029530;28;20049;-77
2022/03/11 07:56:04;;;;;;;32.05;15.93;;;4.60;99.90;;;;;;5043416;28;20476;-74
2022/03/11 07:58:30;;;;;;;28.55;16.48;;;4.70;99.90;;;;;;5025777;28;20034;-75
2022/03/11 08:00:56;;;;;;;25.08;14.35;;;4.90;99.90;;;;;;5043405;28;20072;-72
2022/03/11 08:03:22;;;;;;;27.73;15.48;;;5.00;99.90;;;;;;5041538;28;20041;-73
2022/03/11 08:05:48;;;;;;;26.23;14.95;;;5.10;99.90;;;;;;5041150;28;20049;-72
2022/03/11 08:08:14;;;;;;;28.35;15.40;;;5.10;99.90;;;;;;5023406;28;20060;-76
2022/03/11 08:10:40;;;;;;;26.23;15.48;;;5.20;99.90;;;;;;5040124;28;20566;-73
2022/03/11 08:13:06;;;;;;;27.55;14.32;;;5.30;99.90;;;;;;5040215;28;20049;-74
2022/03/11 08:15:35;;;;;;;25.35;14.68;;;5.30;99.90;;;;;;5042880;28;20057;-74
2022/03/11 08:18:02;;;;;;;28.98;15.13;;;5.50;99.90;;;;;;5014555;28;20057;-73
2022/03/11 08:20:29;;;;;;;27.85;15.00;;;5.50;99.90;;;;;;5009326;28;20045;-73
2022/03/11 08:22:54;;;;;;;29.40;15.38;;;5.60;99.90;;;;;;5038956;28;20045;-74
2022/03/11 08:25:26;;;;;;;25.60;15.02;;;5.90;99.90;;;;;;5044025;28;20065;-73
2022/03/11 08:27:53;;;;;;;27.65;14.85;;;6.00;99.90;;;;;;5033206;28;20042;-73
2022/03/11 08:30:19;;;;;;;30.92;14.85;;;6.00;99.90;;;;;;5049709;28;20042;-73
2022/03/11 08:32:44;;;;;;;25.50;14.65;;;6.10;99.90;;;;;;5043353;28;20073;-73
2022/03/11 08:35:10;;;;;;;27.13;14.27;;;6.10;99.90;;;;;;5031380;28;20556;-72
2022/03/11 08:37:36;;;;;;;32.92;15.15;;;6.20;99.90;;;;;;5013336;28;20060;-72
2022/03/11 08:40:06;;;;;;;37.25;14.75;;;6.30;99.90;;;;;;5044299;28;20037;-73
2022/03/11 08:42:33;;;;;;;23.23;13.38;;;6.30;99.90;;;;;;5051573;28;20480;-73
2022/03/11 08:45:00;;;;;;;36.92;15.27;;;6.40;99.90;;;;;;5050961;28;20068;-73
2022/03/11 08:47:26;;;;;;;29.25;15.10;;;6.40;99.70;;;;;;5050151;28;20033;-73
2022/03/11 08:49:52;;;;;;;27.80;15.05;;;6.40;99.60;;;;;;5034561;28;20068;-73
2022/03/11 08:52:17;;;;;;;37.38;15.23;;;6.40;99.50;;;;;;5032459;28;20464;-74
2022/03/11 08:54:43;;;;;;;29.90;15.20;;;6.50;99.40;;;;;;5031711;28;20042;-73
2022/03/11 08:57:09;;;;;;;34.75;16.00;;;6.50;98.70;;;;;;5030137;28;20038;-73
2022/03/11 08:59:34;;;;;;;42.17;15.88;;;6.70;99.30;;;;;;5026975;28;20527;-73
2022/03/11 09:02:02;;;;;;;30.42;14.75;;;6.80;99.10;;;;;;4997481;28;20046;-73
2022/03/11 09:04:28;;;;;;;27.73;14.82;;;7.00;98.70;;;;;;5029745;28;20053;-73
2022/03/11 09:06:53;;;;;;;31.35;15.68;;;7.10;98.60;;;;;;5028030;28;20396;-72
2022/03/11 09:09:19;;;;;;;30.10;14.45;;;7.30;98.60;;;;;;5025399;28;20056;-73
2022/03/11 09:11:45;;;;;;;26.05;14.82;;;7.50;98.50;;;;;;5028631;28;20049;-75
2022/03/11 09:14:11;;;;;;;39.28;15.48;;;7.60;97.70;;;;;;5040134;28;20042;-74
2022/03/11 09:16:37;;;;;;;27.38;14.23;;;7.60;96.70;;;;;;5031896;28;20060;-73
2022/03/11 09:19:03;;;;;;;31.73;16.20;;;7.70;97.00;;;;;;5049569;28;20037;-74
2022/03/11 09:21:29;;;;;;;39.08;15.20;;;7.70;96.00;;;;;;5046290;28;20087;-73
2022/03/11 09:23:55;;;;;;;31.95;14.20;;;7.70;96.10;;;;;;5048618;28;20042;-74
2022/03/11 09:26:21;;;;;;;25.25;14.52;;;7.80;96.10;;;;;;5047793;28;20071;-74
2022/03/11 09:28:46;;;;;;;30.65;15.43;;;7.90;95.20;;;;;;5043159;28;20042;-74
2022/03/11 09:31:14;;;;;;;34.33;15.80;;;8.00;95.10;;;;;;5011946;28;20042;-75
2022/03/11 09:33:40;;;;;;;25.40;15.00;;;8.00;94.80;;;;;;5010599;28;20110;-72
2022/03/11 09:36:06;;;;;;;33.97;15.23;;;8.00;94.80;;;;;;5020155;28;20068;-74
2022/03/11 09:38:32;;;;;;;34.15;14.93;;;8.10;94.70;;;;;;5036578;28;20045;-74
2022/03/11 09:41:00;;;;;;;28.35;14.77;;;8.40;94.50;;;;;;5045876;28;20068;-73
2022/03/11 09:43:26;;;;;;;29.77;14.50;;;8.40;94.30;;;;;;5047293;28;20080;-74
2022/03/11 09:45:52;;;;;;;26.13;15.13;;;8.60;94.30;;;;;;5050378;28;20041;-73
2022/03/11 09:48:19;;;;;;;24.55;15.00;;;8.70;94.00;;;;;;5047380;28;20548;-73
2022/03/11 09:50:44;;;;;;;30.40;16.15;;;8.90;93.40;;;;;;5027744;28;20049;-74
2022/03/11 09:53:11;;;;;;;28.70;15.63;;;9.20;93.60;;;;;;5027797;28;20485;-73
2022/03/11 09:55:39;;;;;;;29.80;14.43;;;9.80;93.40;;;;;;5024955;28;20049;-73
2022/03/11 09:58:04;;;;;;;28.77;14.02;;;9.50;92.00;;;;;;5006542;28;20052;-73
2022/03/11 10:00:30;;;;;;;27.52;14.98;;;9.70;92.00;;;;;;5009964;28;20046;-74
2022/03/11 10:02:56;;;;;;;22.42;15.02;;;10.00;89.00;;;;;;5028120;28;20037;-73
2022/03/11 10:05:22;;;;;;;23.20;13.77;;;10.00;90.10;;;;;;5029890;28;20074;-75
2022/03/11 10:08:04;;;;;;;30.48;14.77;;;10.10;87.90;;;;;;5029566;28;20041;-75
2022/03/11 10:10:30;;;;;;;30.67;15.68;;;10.20;86.10;;;;;;5029670;28;20060;-74
2022/03/11 10:12:56;;;;;;;33.28;14.38;;;10.10;85.50;;;;;;5034262;28;20038;-73
2022/03/11 10:15:28;;;;;;;23.35;13.70;;;10.30;85.20;;;;;;5047508;28;20072;-74
2022/03/11 10:17:54;;;;;;;27.33;15.20;;;10.50;84.20;;;;;;5030079;28;20046;-73
2022/03/11 10:20:20;;;;;;;34.00;15.75;;;10.40;79.60;;;;;;5027371;28;20042;-73
2022/03/11 10:22:46;;;;;;;27.65;14.48;;;10.70;81.90;;;;;;5045928;28;20060;-72
2022/03/11 10:25:14;;;;;;;28.15;14.57;;;11.00;81.80;;;;;;5038219;28;20041;-74
2022/03/11 10:28:03;;;;;;;26.67;14.55;;;11.30;79.20;;;;;;4999545;28;20036;-73
2022/03/11 10:30:37;;;;;;;23.25;14.07;;;11.30;77.10;;;;;;5031910;28;20042;-74
2022/03/11 10:33:05;;;;;;;25.45;14.13;;;11.80;76.10;;;;;;5031600;28;20386;-75
2022/03/11 10:35:32;;;;;;;;;;;11.70;75.50;;;;;;5040702;28;20097;-74
2022/03/11 10:38:03;;;;;;;25.60;13.75;;;11.80;72.80;;;;;;5047815;28;19925;-75
2022/03/11 10:40:31;;;;;;;29.15;14.63;;;12.00;74.70;;;;;;5043145;28;20536;-74
2022/03/11 10:43:21;;;;;;;32.15;14.90;;;12.10;71.20;;;;;;5044897;28;20021;-74
2022/03/11 10:45:51;;;;;;;23.48;13.90;;;12.20;70.40;;;;;;5035132;28;20045;-74
2022/03/11 10:48:19;;;;;;;25.67;15.25;;;12.40;71.60;;;;;;5017853;28;20057;-74
2022/03/11 10:50:45;;;;;;;28.48;15.05;;;12.60;69.60;;;;;;5017979;28;20045;-73
2022/03/11 10:53:12;;;;;;;24.45;14.25;;;12.70;70.70;;;;;;5036353;28;20092;-78
2022/03/11 10:55:41;;;;;;;20.80;14.05;;;12.80;68.80;;;;;;5022169;28;20033;-75
2022/03/11 10:58:07;;;;;;;27.20;14.43;;;12.70;67.30;;;;;;5056145;28;20037;-74
2022/03/11 11:00:36;;;;;;;24.05;14.32;;;12.70;66.40;;;;;;5055635;28;20021;-73
2022/03/11 11:03:04;;;;;;;21.08;13.90;;;12.80;67.50;;;;;;5056169;28;20065;-74
2022/03/11 11:05:30;;;;;;;;;;;13.10;66.70;;;;;;5036230;28;20050;-74
2022/03/11 11:07:57;;;;;;;25.05;13.82;;;13.00;64.90;;;;;;5036131;28;19962;-74
2022/03/11 11:10:24;;;;;;;24.53;14.43;;;13.00;65.80;;;;;;5021739;28;20042;-74
2022/03/11 11:12:50;;;;;;;25.33;13.80;;;13.00;64.40;;;;;;5053766;28;20279;-73
2022/03/11 11:15:16;;;;;;;21.15;14.23;;;12.90;64.10;;;;;;5055480;28;20091;-73
2022/03/11 11:17:46;;;;;;;23.92;13.90;;;13.10;64.30;;;;;;5053190;28;20129;-73
2022/03/11 11:20:18;;;;;;;25.05;13.80;;;13.30;63.40;;;;;;5040084;28;20049;-72
2022/03/11 11:22:45;;;;;;;28.98;14.10;;;13.30;62.00;;;;;;5057986;28;20035;-73
2022/03/11 11:25:11;;;;;;;30.20;13.80;;;13.50;62.20;;;;;;5058861;28;20092;-72
2022/03/11 11:27:38;;;;;;;21.67;13.05;;;13.30;61.40;;;;;;5058468;28;20049;-73
2022/03/11 11:30:05;;;;;;;20.48;13.65;;;13.50;61.50;;;;;;5041904;28;20036;-74
2022/03/11 11:32:31;;;;;;;22.27;14.00;;;13.60;60.40;;;;;;5023849;28;20097;-73
2022/03/11 11:35:32;;;;;;;18.27;13.52;;;13.60;60.20;;;;;;5041524;28;20055;-72
2022/03/11 11:38:00;;;;;;;22.40;14.05;;;13.30;58.30;;;;;;5059127;28;20034;-73
2022/03/11 11:40:27;;;;;;;22.08;13.93;;;14.10;58.50;;;;;;5059141;28;20022;-73
2022/03/11 11:43:26;;;;;;;20.95;13.80;;;13.20;59.10;;;;;;5059547;28;20097;-74
2022/03/11 11:46:12;;;;;;;21.63;14.07;;;13.40;58.50;;;;;;5043850;28;20030;-73
2022/03/11 11:48:42;;;;;;;23.63;13.60;;;13.70;58.30;;;;;;5059103;28;20049;-74
2022/03/11 11:51:12;;;;;;;18.90;13.48;;;14.00;58.50;;;;;;5060094;28;20120;-72
2022/03/11 11:53:56;;;;;;;17.77;13.23;;;14.20;57.80;;;;;;5056680;28;20037;-73
2022/03/11 11:56:39;;;;;;;18.40;12.98;;;14.60;56.30;;;;;;5058370;28;20033;-73
2022/03/11 11:59:08;;;;;;;22.23;14.20;;;15.10;56.80;;;;;;5039441;28;20025;-73
2022/03/11 12:01:44;;;;;;;21.10;13.75;;;14.60;54.50;;;;;;5058067;28;20101;-74
2022/03/11 12:04:24;;;;;;;22.67;13.02;;;14.40;54.80;;;;;;5044992;28;20097;-74
2022/03/11 12:07:10;;;;;;;17.55;12.75;;;14.70;55.20;;;;;;5037816;28;20077;-74
2022/03/11 12:09:38;;;;;;;19.50;12.60;;;14.60;54.50;;;;;;5038056;28;20042;-73
2022/03/11 12:12:30;;;;;;;19.80;13.32;;;15.00;54.60;;;;;;5039027;28;20026;-73
2022/03/11 12:15:05;;;;;;;24.52;13.02;;;15.00;53.20;;;;;;5035003;28;20092;-77
2022/03/11 12:18:03;;;;;;;23.63;12.80;;;15.30;54.00;;;;;;5058745;28;20057;-74
2022/03/11 12:20:34;;;;;;;23.15;13.65;;;15.70;52.70;;;;;;5038472;28;20071;-73
2022/03/11 12:23:03;;;;;;;21.23;12.70;;;15.80;52.00;;;;;;5057974;28;20061;-73
2022/03/11 12:25:32;;;;;;;18.30;12.50;;;16.20;51.20;;;;;;5051837;28;20061;-74
2022/03/11 12:28:00;;;;;;;22.67;12.88;;;15.30;50.60;;;;;;5046756;28;20041;-74
2022/03/11 12:30:27;;;;;;;23.58;12.55;;;15.70;52.30;;;;;;5042633;28;20049;-74
2022/03/11 12:32:53;;;;;;;21.52;12.05;;;15.80;51.20;;;;;;5053976;28;20037;-73
2022/03/11 12:35:22;;;;;;;20.05;12.73;;;15.70;50.50;;;;;;5053431;28;20050;-74
2022/03/11 12:37:48;;;;;;;23.50;12.88;;;15.40;51.50;;;;;;5026801;28;20642;-75
2022/03/11 12:40:13;;;;;;;22.67;12.20;;;15.00;51.10;;;;;;5047591;28;20052;-75
2022/03/11 12:42:40;;;;;;;19.17;12.60;;;15.40;51.30;;;;;;5033413;28;20037;-76